createdAt,value
2022-09-26T00:01:42.771Z,10.40
2022-09-26T00:04:24.129Z,10.40
2022-09-26T00:06:56.556Z,10.40
2022-09-26T00:09:27.312Z,10.40
2022-09-26T00:11:55.526Z,10.40
2022-09-26T00:14:27.551Z,10.40
2022-09-26T00:16:56.377Z,10.30
2022-09-26T00:19:24.930Z,10.30
2022-09-26T00:21:52.999Z,10.70
2022-09-26T00:24:20.975Z,10.10
2022-09-26T00:26:49.145Z,10.00
2022-09-26T00:29:17.432Z,10.00
2022-09-26T00:31:47.553Z,10.00
2022-09-26T00:34:18.481Z,10.00
2022-09-26T00:36:46.839Z,10.00
2022-09-26T00:39:16.783Z,10.10
2022-09-26T00:41:45.640Z,10.10
2022-09-26T00:44:45.203Z,10.00
2022-09-26T00:47:37.369Z,9.90
2022-09-26T00:50:19.133Z,9.90
2022-09-26T00:53:00.348Z,10.00
2022-09-26T00:55:35.131Z,10.10
2022-09-26T00:58:19.028Z,10.20
2022-09-26T01:00:49.838Z,10.30
2022-09-26T01:03:20.033Z,10.40
2022-09-26T01:05:48.896Z,10.50
2022-09-26T01:08:23.577Z,10.60
2022-09-26T01:10:51.699Z,10.60
2022-09-26T01:13:21.998Z,10.60
2022-09-26T01:15:50.092Z,10.60
2022-09-26T01:18:18.325Z,10.60
2022-09-26T01:21:00.133Z,10.60
2022-09-26T01:24:14.211Z,10.60
2022-09-26T01:27:15.896Z,10.60
2022-09-26T01:30:51.679Z,10.70
2022-09-26T01:33:41.926Z,10.80
2022-09-26T01:36:18.640Z,10.60
2022-09-26T01:39:08.506Z,10.60
2022-09-26T01:42:02.281Z,10.60
2022-09-26T01:44:58.218Z,10.50
2022-09-26T01:47:57.074Z,10.40
2022-09-26T01:50:34.862Z,10.40
2022-09-26T01:53:17.698Z,10.40
2022-09-26T01:55:55.958Z,10.40
2022-09-26T01:58:52.804Z,10.30
2022-09-26T02:01:25.769Z,10.30
2022-09-26T02:04:00.370Z,10.20
2022-09-26T02:06:38.063Z,10.10
2022-09-26T02:09:28.921Z,10.00
2022-09-26T02:12:02.164Z,9.90
2022-09-26T02:14:35.849Z,9.90
2022-09-26T02:17:15.887Z,9.80
2022-09-26T02:19:43.699Z,9.80
2022-09-26T02:22:12.059Z,9.80
2022-09-26T02:24:40.312Z,9.70
2022-09-26T02:27:08.401Z,9.70
2022-09-26T02:29:36.848Z,9.70
2022-09-26T02:32:15.509Z,9.70
2022-09-26T02:34:47.066Z,9.80
2022-09-26T02:37:21.130Z,9.90
2022-09-26T02:39:52.876Z,9.90
2022-09-26T02:42:47.794Z,9.90
2022-09-26T02:45:46.424Z,9.90
2022-09-26T02:48:32.021Z,9.90
2022-09-26T02:51:24.626Z,9.80
2022-09-26T02:54:42.051Z,9.80
2022-09-26T02:57:45.981Z,9.70
2022-09-26T03:00:32.893Z,9.60
2022-09-26T03:03:28.840Z,9.60
2022-09-26T03:05:59.978Z,9.60
2022-09-26T03:08:32.254Z,9.60
2022-09-26T03:11:05.220Z,9.50
2022-09-26T03:13:38.998Z,9.60
2022-09-26T03:16:09.747Z,9.50
2022-09-26T03:18:58.802Z,9.50
2022-09-26T03:21:28.317Z,9.40
2022-09-26T03:23:58.102Z,9.40
2022-09-26T03:26:29.454Z,9.30
2022-09-26T03:29:01.058Z,9.20
2022-09-26T03:31:32.071Z,9.10
2022-09-26T03:34:08.589Z,8.90
2022-09-26T03:36:39.875Z,8.80
2022-09-26T03:39:10.141Z,8.80
2022-09-26T03:41:53.769Z,8.70
2022-09-26T03:44:31.792Z,8.70
2022-09-26T03:47:05.665Z,8.50
2022-09-26T03:49:39.988Z,8.50
2022-09-26T03:52:11.830Z,8.50
2022-09-26T03:54:40.910Z,8.40
2022-09-26T03:57:10.560Z,8.40
2022-09-26T03:59:43.732Z,8.40
2022-09-26T04:02:14.370Z,8.30
2022-09-26T04:04:47.627Z,8.30
2022-09-26T04:07:18.769Z,8.30
2022-09-26T04:09:49.199Z,8.20
2022-09-26T04:12:22.833Z,8.20
2022-09-26T04:14:53.571Z,8.20
2022-09-26T04:17:23.932Z,8.20
2022-09-26T04:19:53.486Z,8.10
2022-09-26T04:22:25.228Z,8.10
2022-09-26T04:24:58.942Z,8.10
2022-09-26T04:27:30.470Z,8.10
2022-09-26T04:30:01.881Z,8.10
2022-09-26T04:33:01.015Z,8.10
2022-09-26T04:35:36.218Z,8.00
2022-09-26T04:38:05.373Z,8.00
2022-09-26T04:40:39.534Z,8.00
2022-09-26T04:43:12.039Z,8.00
2022-09-26T04:45:42.924Z,7.90
2022-09-26T04:48:11.583Z,8.00
2022-09-26T04:50:42.146Z,7.90
2022-09-26T04:53:12.338Z,7.90
2022-09-26T04:55:54.894Z,7.90
2022-09-26T04:58:23.058Z,7.90
2022-09-26T05:00:51.167Z,7.90
2022-09-26T05:03:29.607Z,7.90
2022-09-26T05:05:59.082Z,7.80
2022-09-26T05:08:27.504Z,7.80
2022-09-26T05:10:57.183Z,7.80
2022-09-26T05:13:27.165Z,7.80
2022-09-26T05:15:55.970Z,7.80
2022-09-26T05:18:25.532Z,7.80
2022-09-26T05:20:56.168Z,7.80
2022-09-26T05:23:45.519Z,7.80
2022-09-26T05:26:41.322Z,7.80
2022-09-26T05:29:10.547Z,7.80
2022-09-26T05:31:54.785Z,7.80
2022-09-26T05:34:26.275Z,7.80
2022-09-26T05:36:56.529Z,7.80
2022-09-26T05:39:44.496Z,7.80
2022-09-26T05:42:15.594Z,7.90
2022-09-26T05:44:44.531Z,7.90
2022-09-26T05:47:13.287Z,7.90
2022-09-26T05:49:41.636Z,8.00
2022-09-26T05:52:13.094Z,8.10
2022-09-26T05:54:41.038Z,8.10
2022-09-26T05:57:28.855Z,8.20
2022-09-26T05:59:58.086Z,8.20
2022-09-26T06:02:26.147Z,8.20
2022-09-26T06:05:14.603Z,8.30
2022-09-26T06:07:45.740Z,8.40
2022-09-26T06:10:25.552Z,8.50
2022-09-26T06:13:06.115Z,8.50
2022-09-26T06:15:42.360Z,8.60
2022-09-26T06:18:10.535Z,8.80
2022-09-26T06:20:39.728Z,8.80
2022-09-26T06:23:08.410Z,8.90
2022-09-26T06:25:39.136Z,9.00
2022-09-26T06:28:07.930Z,9.10
2022-09-26T06:30:37.859Z,9.20
2022-09-26T06:33:14.590Z,9.30
2022-09-26T06:36:14.346Z,9.30
2022-09-26T06:38:42.547Z,9.40
2022-09-26T06:41:16.580Z,9.50
2022-09-26T06:43:45.633Z,9.50
2022-09-26T06:46:39.552Z,9.60
2022-09-26T06:49:14.907Z,9.80
2022-09-26T06:51:49.423Z,9.90
2022-09-26T06:54:18.760Z,10.10
2022-09-26T06:56:47.143Z,10.30
2022-09-26T06:59:17.634Z,10.40
2022-09-26T07:01:54.362Z,10.40
2022-09-26T07:04:41.809Z,10.50
2022-09-26T07:07:31.018Z,10.60
2022-09-26T07:09:59.676Z,10.60
2022-09-26T07:12:40.474Z,10.70
2022-09-26T07:15:09.723Z,10.80
2022-09-26T07:17:38.249Z,10.80
2022-09-26T07:20:19.987Z,10.90
2022-09-26T07:23:08.677Z,11.00
2022-09-26T07:25:39.535Z,11.10
2022-09-26T07:28:09.883Z,11.20
2022-09-26T07:30:51.344Z,11.20
2022-09-26T07:33:48.576Z,11.20
2022-09-26T07:36:18.614Z,11.20
2022-09-26T07:38:49.428Z,11.30
2022-09-26T07:41:19.580Z,11.30
2022-09-26T07:46:54.273Z,11.20
2022-09-26T07:49:42.037Z,11.20
2022-09-26T07:52:29.322Z,11.20
2022-09-26T07:55:28.188Z,11.20
2022-09-26T07:58:07.209Z,11.30
2022-09-26T08:00:56.361Z,11.40
2022-09-26T08:03:50.110Z,11.40
2022-09-26T08:06:33.615Z,11.50
2022-09-26T08:09:02.342Z,11.60
2022-09-26T08:11:49.721Z,12.10
2022-09-26T08:14:36.184Z,11.70
2022-09-26T08:17:17.937Z,11.90
2022-09-26T08:19:46.245Z,11.90
2022-09-26T08:22:14.712Z,12.00
2022-09-26T08:24:45.279Z,12.10
2022-09-26T08:27:25.200Z,12.20
2022-09-26T08:29:54.514Z,12.40
2022-09-26T08:32:23.903Z,12.40
2022-09-26T08:34:52.636Z,12.50
2022-09-26T08:37:42.638Z,12.60
2022-09-26T08:41:07.338Z,12.50
2022-09-26T08:44:56.066Z,12.50
2022-09-26T08:47:53.504Z,12.80
2022-09-26T08:50:51.992Z,12.90
2022-09-26T08:53:47.927Z,13.10
2022-09-26T08:56:31.960Z,13.30
2022-09-26T08:59:06.293Z,13.30
2022-09-26T09:01:42.857Z,13.40
2022-09-26T09:04:54.099Z,13.50
2022-09-26T09:07:26.390Z,13.50
2022-09-26T09:10:01.457Z,13.40
2022-09-26T09:13:02.883Z,13.50
2022-09-26T09:16:15.734Z,13.80
2022-09-26T09:19:40.930Z,14.20
2022-09-26T09:22:47.703Z,14.50
2022-09-26T09:25:43.612Z,14.70
2022-09-26T09:28:49.278Z,14.80
2022-09-26T09:31:17.780Z,14.80
2022-09-26T09:34:05.860Z,14.90
2022-09-26T09:37:17.661Z,14.70
2022-09-26T09:40:00.625Z,14.50
2022-09-26T09:42:48.572Z,14.40
2022-09-26T09:45:24.152Z,14.50
2022-09-26T09:47:52.783Z,14.60
2022-09-26T09:50:56.026Z,14.70
2022-09-26T09:53:49.843Z,14.70
2022-09-26T09:56:33.035Z,14.70
2022-09-26T09:59:29.975Z,14.90
2022-09-26T10:02:29.948Z,14.80
2022-09-26T10:05:24.105Z,14.70
2022-09-26T10:07:58.129Z,14.80
2022-09-26T10:11:39.453Z,14.80
2022-09-26T10:14:55.208Z,15.00
2022-09-26T10:17:56.082Z,14.90
2022-09-26T10:20:57.368Z,15.00
2022-09-26T10:23:36.924Z,15.00
2022-09-26T10:26:11.616Z,15.10
2022-09-26T10:28:57.548Z,15.30
2022-09-26T10:31:42.054Z,15.40
2022-09-26T10:34:33.393Z,15.40
2022-09-26T10:37:26.124Z,15.40
2022-09-26T10:40:21.066Z,15.30
2022-09-26T10:42:49.311Z,15.50
2022-09-26T10:45:27.395Z,15.90
2022-09-26T10:48:18.899Z,15.80
2022-09-26T10:51:07.850Z,15.80
2022-09-26T10:53:47.582Z,15.80
2022-09-26T10:56:26.100Z,16.00
2022-09-26T10:59:00.509Z,16.50
2022-09-26T11:01:32.056Z,16.40
2022-09-26T11:04:38.791Z,16.40
2022-09-26T11:07:39.387Z,16.50
2022-09-26T11:10:34.418Z,16.50
2022-09-26T11:13:46.583Z,16.50
2022-09-26T11:16:19.269Z,16.60
2022-09-26T11:19:14.714Z,16.50
2022-09-26T11:22:25.285Z,16.50
2022-09-26T11:25:26.080Z,16.40
2022-09-26T11:28:21.713Z,16.40
2022-09-26T11:31:28.409Z,16.60
2022-09-26T11:34:33.737Z,16.60
2022-09-26T11:38:05.925Z,16.70
2022-09-26T11:41:38.659Z,16.70
2022-09-26T11:44:48.742Z,16.90
2022-09-26T11:47:38.599Z,17.40
2022-09-26T11:51:12.413Z,17.50
2022-09-26T11:54:11.103Z,17.40
2022-09-26T11:56:46.761Z,17.20
2022-09-26T11:59:37.715Z,17.30
2022-09-26T12:03:14.047Z,17.70
2022-09-26T12:05:53.781Z,17.80
2022-09-26T12:08:47.304Z,17.40
2022-09-26T12:11:34.188Z,17.30
2022-09-26T12:14:43.222Z,17.50
2022-09-26T12:17:27.571Z,17.30
2022-09-26T12:20:42.511Z,17.30
2022-09-26T12:23:33.015Z,17.20
2022-09-26T12:26:30.650Z,16.90
2022-09-26T12:29:23.714Z,16.60
2022-09-26T12:32:25.518Z,16.20
2022-09-26T12:35:43.916Z,15.80
2022-09-26T12:38:42.585Z,15.40
2022-09-26T12:41:14.409Z,14.90
2022-09-26T12:44:25.417Z,14.70
2022-09-26T12:47:57.972Z,14.80
2022-09-26T12:51:13.527Z,14.80
2022-09-26T12:53:55.824Z,14.80
2022-09-26T12:57:12.773Z,14.80
2022-09-26T13:00:12.733Z,14.80
2022-09-26T13:03:10.004Z,14.60
2022-09-26T13:06:26.262Z,14.50
2022-09-26T13:09:16.137Z,14.50
2022-09-26T13:12:16.821Z,14.60
2022-09-26T13:15:40.203Z,14.40
2022-09-26T13:18:45.551Z,14.50
2022-09-26T13:21:24.856Z,14.60
2022-09-26T13:24:00.289Z,14.60
2022-09-26T13:27:09.971Z,14.50
2022-09-26T13:29:44.210Z,14.50
2022-09-26T13:32:42.260Z,14.40
2022-09-26T13:35:24.960Z,14.30
2022-09-26T13:38:11.794Z,14.20
2022-09-26T13:41:05.085Z,14.20
2022-09-26T13:44:06.177Z,14.20
2022-09-26T13:47:20.258Z,14.30
2022-09-26T13:50:18.507Z,14.20
2022-09-26T13:53:24.357Z,14.20
2022-09-26T13:56:36.365Z,14.20
2022-09-26T13:59:12.497Z,14.10
2022-09-26T14:02:29.533Z,14.10
2022-09-26T14:05:26.777Z,14.20
2022-09-26T14:08:14.103Z,14.20
2022-09-26T14:10:52.949Z,14.20
2022-09-26T14:13:37.510Z,14.30
2022-09-26T14:16:33.511Z,14.30
2022-09-26T14:19:27.858Z,14.30
2022-09-26T14:22:18.802Z,14.50
2022-09-26T14:24:57.117Z,14.50
2022-09-26T14:27:46.775Z,14.40
2022-09-26T14:30:27.053Z,14.40
2022-09-26T14:33:02.875Z,14.50
2022-09-26T14:35:35.426Z,14.40
2022-09-26T14:38:20.652Z,14.40
2022-09-26T14:41:00.992Z,14.30
2022-09-26T14:43:36.283Z,14.30
2022-09-26T14:46:24.823Z,14.90
2022-09-26T14:49:05.488Z,14.30
2022-09-26T14:51:37.918Z,14.20
2022-09-26T14:54:36.532Z,14.20
2022-09-26T14:57:21.227Z,14.20
2022-09-26T14:59:50.225Z,14.20
2022-09-26T15:02:28.650Z,14.20
2022-09-26T15:05:13.473Z,13.60
2022-09-26T15:07:53.992Z,14.20
2022-09-26T15:10:41.352Z,14.20
2022-09-26T15:13:18.087Z,14.10
2022-09-26T15:16:02.591Z,14.10
2022-09-26T15:18:42.645Z,14.10
2022-09-26T15:21:34.368Z,14.00
2022-09-26T15:24:34.065Z,14.00
2022-09-26T15:27:15.196Z,13.90
2022-09-26T15:29:48.856Z,13.90
2022-09-26T15:32:28.795Z,13.90
2022-09-26T15:34:59.691Z,13.80
2022-09-26T15:37:34.805Z,13.90
2022-09-26T15:40:26.080Z,13.90
2022-09-26T15:43:10.468Z,13.90
2022-09-26T15:45:47.803Z,13.90
2022-09-26T15:48:34.358Z,13.90
2022-09-26T15:51:13.073Z,13.90
2022-09-26T15:53:53.503Z,13.90
2022-09-26T15:56:30.875Z,13.90
2022-09-26T15:59:19.548Z,13.90
2022-09-26T16:01:52.563Z,13.90
2022-09-26T16:04:30.962Z,13.90
2022-09-26T16:07:14.254Z,13.90
2022-09-26T16:09:45.030Z,13.90
2022-09-26T16:12:16.010Z,13.90
2022-09-26T16:15:06.060Z,13.90
2022-09-26T16:17:49.252Z,13.90
2022-09-26T16:20:17.456Z,13.90
2022-09-26T16:24:07.794Z,13.80
2022-09-26T16:26:54.084Z,13.80
2022-09-26T16:29:32.959Z,13.80
2022-09-26T16:32:03.750Z,13.80
2022-09-26T16:34:32.319Z,13.70
2022-09-26T16:37:00.298Z,13.70
2022-09-26T16:39:30.895Z,13.70
2022-09-26T16:42:05.781Z,13.70
2022-09-26T16:44:41.178Z,13.70
2022-09-26T16:47:42.944Z,13.60
2022-09-26T16:50:35.706Z,13.60
2022-09-26T16:53:09.612Z,13.60
2022-09-26T16:55:37.808Z,13.60
2022-09-26T16:58:06.424Z,13.50
2022-09-26T17:00:53.704Z,13.50
2022-09-26T17:03:30.036Z,13.50
2022-09-26T17:05:59.697Z,13.80
2022-09-26T17:08:28.953Z,13.50
2022-09-26T17:11:02.513Z,13.50
2022-09-26T17:13:34.150Z,13.50
2022-09-26T17:16:03.559Z,13.40
2022-09-26T17:18:33.452Z,13.40
2022-09-26T17:21:02.209Z,13.40
2022-09-26T17:23:42.067Z,13.40
2022-09-26T17:26:21.860Z,13.40
2022-09-26T17:28:53.173Z,13.30
2022-09-26T17:31:21.806Z,13.20
2022-09-26T17:33:52.748Z,13.20
2022-09-26T17:36:27.326Z,13.10
2022-09-26T17:38:59.442Z,13.10
2022-09-26T17:41:29.852Z,13.00
2022-09-26T17:44:01.144Z,13.00
2022-09-26T17:46:29.794Z,13.00
2022-09-26T17:48:59.338Z,12.90
2022-09-26T17:51:27.369Z,12.80
2022-09-26T17:53:57.445Z,12.90
2022-09-26T17:56:26.379Z,12.80
2022-09-26T17:58:55.176Z,12.80
2022-09-26T18:01:33.567Z,12.80
2022-09-26T18:04:07.285Z,12.80
2022-09-26T18:06:36.979Z,12.80
2022-09-26T18:09:10.016Z,12.80
2022-09-26T18:11:39.044Z,12.80
2022-09-26T18:14:08.136Z,12.80
2022-09-26T18:16:36.224Z,12.80
2022-09-26T18:19:07.580Z,12.70
2022-09-26T18:21:36.243Z,12.70
2022-09-26T18:24:07.068Z,12.70
2022-09-26T18:26:47.463Z,12.70
2022-09-26T18:29:36.386Z,12.70
2022-09-26T18:32:12.651Z,12.60
2022-09-26T18:34:40.705Z,12.60
2022-09-26T18:37:09.298Z,12.60
2022-09-26T18:39:37.360Z,12.50
2022-09-26T18:42:09.293Z,12.50
2022-09-26T18:44:37.950Z,12.50
2022-09-26T18:47:14.334Z,12.50
2022-09-26T18:49:46.472Z,12.50
2022-09-26T18:52:17.466Z,12.40
2022-09-26T18:54:46.754Z,12.40
2022-09-26T18:57:33.722Z,12.40
2022-09-26T19:00:03.488Z,12.30
2022-09-26T19:02:38.395Z,12.20
2022-09-26T19:05:08.477Z,12.20
2022-09-26T19:07:36.351Z,12.10
2022-09-26T19:10:04.566Z,12.00
2022-09-26T19:12:32.574Z,11.90
2022-09-26T19:15:00.441Z,11.90
2022-09-26T19:17:28.275Z,11.80
2022-09-26T19:19:56.170Z,11.70
2022-09-26T19:22:24.334Z,11.70
2022-09-26T19:24:59.408Z,11.70
2022-09-26T19:27:49.592Z,11.70
2022-09-26T19:30:24.055Z,11.70
2022-09-26T19:32:56.157Z,8.20
2022-09-26T19:35:36.307Z,11.70
2022-09-26T19:38:27.428Z,11.60
2022-09-26T19:40:56.895Z,11.70
2022-09-26T19:43:24.946Z,11.70
2022-09-26T19:45:54.833Z,11.60
2022-09-26T19:48:23.960Z,11.60
2022-09-26T19:50:52.675Z,11.00
2022-09-26T19:53:23.859Z,11.60
2022-09-26T19:55:52.246Z,12.30
2022-09-26T19:58:24.811Z,11.60
2022-09-26T20:00:56.558Z,11.50
2022-09-26T20:03:33.434Z,11.50
2022-09-26T20:06:01.742Z,11.40
2022-09-26T20:08:29.661Z,11.40
2022-09-26T20:10:59.236Z,11.40
2022-09-26T20:13:27.099Z,11.40
2022-09-26T20:15:55.667Z,11.30
2022-09-26T20:18:24.907Z,11.30
2022-09-26T20:20:55.971Z,11.30
2022-09-26T20:23:26.745Z,11.30
2022-09-26T20:25:55.626Z,11.30
2022-09-26T20:28:24.791Z,11.20
2022-09-26T20:30:52.916Z,11.20
2022-09-26T20:33:23.197Z,11.20
2022-09-26T20:36:01.673Z,11.20
2022-09-26T20:38:37.115Z,11.20
2022-09-26T20:41:13.519Z,11.20
2022-09-26T20:43:44.746Z,11.20
2022-09-26T20:46:13.407Z,11.20
2022-09-26T20:48:43.686Z,11.20
2022-09-26T20:51:22.336Z,11.20
2022-09-26T20:53:50.325Z,11.10
2022-09-26T20:56:21.253Z,11.10
2022-09-26T20:58:49.632Z,11.10
2022-09-26T21:01:20.626Z,11.00
2022-09-26T21:03:52.305Z,11.00
2022-09-26T21:06:23.969Z,10.90
2022-09-26T21:08:51.920Z,10.90
2022-09-26T21:11:22.028Z,10.80
2022-09-26T21:13:50.365Z,10.80
2022-09-26T21:16:20.837Z,10.80
2022-09-26T21:18:51.586Z,10.70
2022-09-26T21:21:26.741Z,10.70
2022-09-26T21:24:35.147Z,10.70
2022-09-26T21:27:03.057Z,10.70
2022-09-26T21:29:30.852Z,10.60
2022-09-26T21:32:02.899Z,10.60
2022-09-26T21:34:33.165Z,10.60
2022-09-26T21:37:03.775Z,10.60
2022-09-26T21:39:31.997Z,10.50
2022-09-26T21:42:04.527Z,10.60
2022-09-26T21:44:41.195Z,10.50
2022-09-26T21:47:09.790Z,10.50
2022-09-26T21:49:37.970Z,10.50
2022-09-26T21:52:35.869Z,10.40
2022-09-26T21:55:06.223Z,10.40
2022-09-26T21:57:43.660Z,10.40
2022-09-26T22:00:13.726Z,10.40
2022-09-26T22:02:41.888Z,10.40
2022-09-26T22:05:11.969Z,10.30
2022-09-26T22:07:40.069Z,10.30
2022-09-26T22:10:08.246Z,10.30
2022-09-26T22:12:36.155Z,10.30
2022-09-26T22:15:04.436Z,10.30
2022-09-26T22:17:32.388Z,10.30
2022-09-26T22:20:00.215Z,10.20
2022-09-26T22:22:28.161Z,10.20
2022-09-26T22:24:58.272Z,10.20
2022-09-26T22:27:26.197Z,10.20
2022-09-26T22:29:54.505Z,10.20
2022-09-26T22:32:22.373Z,10.20
2022-09-26T22:34:50.349Z,10.20
2022-09-26T22:37:18.372Z,10.20
2022-09-26T22:39:46.380Z,10.20
2022-09-26T22:42:14.451Z,10.20
2022-09-26T22:44:42.514Z,10.20
2022-09-26T22:47:10.480Z,10.20
2022-09-26T22:49:38.358Z,10.20
2022-09-26T22:52:06.278Z,10.20
2022-09-26T22:54:34.142Z,10.20
2022-09-26T22:57:02.108Z,10.10
2022-09-26T22:59:29.942Z,10.20
2022-09-26T23:01:58.016Z,10.10
2022-09-26T23:04:46.021Z,10.10
2022-09-26T23:07:17.013Z,10.10
2022-09-26T23:09:45.332Z,10.10
2022-09-26T23:12:13.413Z,10.10
2022-09-26T23:14:41.438Z,10.10
2022-09-26T23:17:09.554Z,10.10
2022-09-26T23:19:38.160Z,10.10
2022-09-26T23:22:06.338Z,10.10
2022-09-26T23:24:34.247Z,10.10
2022-09-26T23:27:02.562Z,10.10
2022-09-26T23:29:30.846Z,10.20
2022-09-26T23:31:59.053Z,10.20
2022-09-26T23:34:26.919Z,10.10
2022-09-26T23:36:54.776Z,10.10
2022-09-26T23:39:22.616Z,10.10
2022-09-26T23:41:50.490Z,10.10
2022-09-26T23:44:18.288Z,10.10
2022-09-26T23:46:46.135Z,10.10
2022-09-26T23:49:14.087Z,10.10
2022-09-26T23:51:42.490Z,10.10
2022-09-26T23:54:11.060Z,10.10
2022-09-26T23:56:40.639Z,10.10
2022-09-26T23:59:08.851Z,10.10
